sensor_id;sensor_type;location;lat;lon;timestamp;pressure;altitude;pressure_sealevel;temperature;humidity
31761;BME280;18335;51.486;7.562;2023-01-10T00:01:43;99702.88;;;6.12;100.00
31761;BME280;18335;51.486;7.562;2023-01-10T00:04:10;99708.50;;;6.19;100.00
31761;BME280;18335;51.486;7.562;2023-01-10T00:06:37;99720.22;;;6.19;100.00
31761;BME280;18335;51.486;7.562;2023-01-10T00:09:03;99717.31;;;6.03;100.00
31761;BME280;18335;51.486;7.562;2023-01-10T00:11:30;99728.16;;;6.03;100.00
31761;BME280;18335;51.486;7.562;2023-01-10T00:14:11;99737.78;;;6.15;100.00
31761;BME280;18335;51.486;7.562;2023-01-10T00:16:38;99731.03;;;6.19;100.00
31761;BME280;18335;51.486;7.562;2023-01-10T00:19:06;99729.72;;;5.96;100.00
31761;BME280;18335;51.486;7.562;2023-01-10T00:21:34;99740.06;;;6.10;100.00
31761;BME280;18335;51.486;7.562;2023-01-10T00:24:01;99746.50;;;6.09;100.00
31761;BME280;18335;51.486;7.562;2023-01-10T00:26:41;99756.34;;;6.00;100.00
31761;BME280;18335;51.486;7.562;2023-01-10T00:29:10;99763.66;;;6.00;100.00
31761;BME280;18335;51.486;7.562;2023-01-10T00:31:37;99772.88;;;6.07;100.00
31761;BME280;18335;51.486;7.562;2023-01-10T00:34:05;99783.97;;;6.13;100.00
31761;BME280;18335;51.486;7.562;2023-01-10T00:36:33;99787.97;;;6.09;100.00
31761;BME280;18335;51.486;7.562;2023-01-10T00:39:00;99790.97;;;6.06;100.00
31761;BME280;18335;51.486;7.562;2023-01-10T00:41:27;99798.84;;;6.00;100.00
31761;BME280;18335;51.486;7.562;2023-01-10T00:44:11;99798.66;;;6.11;100.00
31761;BME280;18335;51.486;7.562;2023-01-10T00:46:38;99799.25;;;6.05;100.00
31761;BME280;18335;51.486;7.562;2023-01-10T00:49:06;99799.69;;;6.00;100.00
31761;BME280;18335;51.486;7.562;2023-01-10T00:51:34;99812.91;;;6.03;100.00
31761;BME280;18335;51.486;7.562;2023-01-10T00:54:00;99816.38;;;5.96;100.00
31761;BME280;18335;51.486;7.562;2023-01-10T00:56:27;99821.59;;;6.07;100.00
31761;BME280;18335;51.486;7.562;2023-01-10T00:58:54;99822.34;;;6.09;100.00
31761;BME280;18335;51.486;7.562;2023-01-10T01:01:20;99819.63;;;6.09;100.00
31761;BME280;18335;51.486;7.562;2023-01-10T01:03:47;99825.44;;;6.14;100.00
31761;BME280;18335;51.486;7.562;2023-01-10T01:06:15;99829.44;;;6.10;100.00
31761;BME280;18335;51.486;7.562;2023-01-10T01:08:42;99831.75;;;6.05;100.00
31761;BME280;18335;51.486;7.562;2023-01-10T01:11:09;99837.16;;;6.05;100.00
31761;BME280;18335;51.486;7.562;2023-01-10T01:13:36;99836.19;;;6.06;100.00
31761;BME280;18335;51.486;7.562;2023-01-10T01:16:02;99845.47;;;5.94;100.00
31761;BME280;18335;51.486;7.562;2023-01-10T01:18:29;99849.28;;;6.01;100.00
31761;BME280;18335;51.486;7.562;2023-01-10T01:20:56;99853.31;;;5.97;100.00
31761;BME280;18335;51.486;7.562;2023-01-10T01:23:26;99855.56;;;5.92;100.00
31761;BME280;18335;51.486;7.562;2023-01-10T01:25:54;99864.28;;;5.86;100.00
31761;BME280;18335;51.486;7.562;2023-01-10T01:28:22;99876.81;;;5.87;100.00
31761;BME280;18335;51.486;7.562;2023-01-10T01:30:49;99881.50;;;5.85;100.00
31761;BME280;18335;51.486;7.562;2023-01-10T01:33:16;99882.50;;;5.93;100.00
31761;BME280;18335;51.486;7.562;2023-01-10T01:35:43;99894.63;;;5.99;100.00
31761;BME280;18335;51.486;7.562;2023-01-10T01:38:11;99893.06;;;5.87;100.00
31761;BME280;18335;51.486;7.562;2023-01-10T01:40:39;99905.75;;;5.86;100.00
31761;BME280;18335;51.486;7.562;2023-01-10T01:43:20;99915.28;;;6.00;100.00
31761;BME280;18335;51.486;7.562;2023-01-10T01:45:47;99920.13;;;5.96;100.00
31761;BME280;18335;51.486;7.562;2023-01-10T01:48:28;99914.69;;;5.77;100.00
31761;BME280;18335;51.486;7.562;2023-01-10T01:50:59;99920.69;;;5.81;100.00
31761;BME280;18335;51.486;7.562;2023-01-10T01:53:33;99924.81;;;5.75;100.00
31761;BME280;18335;51.486;7.562;2023-01-10T01:56:07;99923.09;;;5.84;100.00
31761;BME280;18335;51.486;7.562;2023-01-10T01:58:39;99920.84;;;5.70;100.00
31761;BME280;18335;51.486;7.562;2023-01-10T02:01:07;99920.09;;;5.68;100.00
31761;BME280;18335;51.486;7.562;2023-01-10T02:03:34;99928.38;;;5.66;100.00
31761;BME280;18335;51.486;7.562;2023-01-10T02:06:01;99943.47;;;5.69;100.00
31761;BME280;18335;51.486;7.562;2023-01-10T02:08:28;99939.03;;;5.68;100.00
31761;BME280;18335;51.486;7.562;2023-01-10T02:11:00;99935.78;;;5.74;100.00
31761;BME280;18335;51.486;7.562;2023-01-10T02:13:32;99952.00;;;5.74;100.00
31761;BME280;18335;51.486;7.562;2023-01-10T02:15:59;99950.03;;;5.76;100.00
31761;BME280;18335;51.486;7.562;2023-01-10T02:18:26;99938.94;;;5.79;100.00
31761;BME280;18335;51.486;7.562;2023-01-10T02:21:05;99949.03;;;5.77;100.00
31761;BME280;18335;51.486;7.562;2023-01-10T02:23:53;99956.16;;;5.78;100.00
31761;BME280;18335;51.486;7.562;2023-01-10T02:30:07;99973.56;;;5.85;100.00
31761;BME280;18335;51.486;7.562;2023-01-10T02:32:42;99962.16;;;5.81;100.00
31761;BME280;18335;51.486;7.562;2023-01-10T02:35:29;99969.75;;;5.97;100.00
31761;BME280;18335;51.486;7.562;2023-01-10T02:38:06;99957.47;;;5.93;100.00
31761;BME280;18335;51.486;7.562;2023-01-10T02:40:42;99967.69;;;5.80;100.00
31761;BME280;18335;51.486;7.562;2023-01-10T02:43:14;99972.97;;;5.81;100.00
31761;BME280;18335;51.486;7.562;2023-01-10T02:45:46;99974.00;;;5.90;100.00
31761;BME280;18335;51.486;7.562;2023-01-10T02:48:17;99961.16;;;5.92;100.00
31761;BME280;18335;51.486;7.562;2023-01-10T02:50:49;99960.97;;;5.65;100.00
31761;BME280;18335;51.486;7.562;2023-01-10T02:53:21;99956.00;;;5.50;100.00
31761;BME280;18335;51.486;7.562;2023-01-10T02:56:04;99961.97;;;5.54;100.00
31761;BME280;18335;51.486;7.562;2023-01-10T02:58:46;99964.53;;;5.46;100.00
31761;BME280;18335;51.486;7.562;2023-01-10T03:01:22;99975.66;;;5.43;100.00
31761;BME280;18335;51.486;7.562;2023-01-10T03:04:01;99970.66;;;5.48;100.00
31761;BME280;18335;51.486;7.562;2023-01-10T03:06:37;99970.88;;;5.26;100.00
31761;BME280;18335;51.486;7.562;2023-01-10T03:09:13;99982.16;;;5.31;100.00
31761;BME280;18335;51.486;7.562;2023-01-10T03:11:45;99982.44;;;5.28;100.00
31761;BME280;18335;51.486;7.562;2023-01-10T03:14:15;99985.56;;;5.33;100.00
31761;BME280;18335;51.486;7.562;2023-01-10T03:16:46;99992.25;;;5.19;100.00
31761;BME280;18335;51.486;7.562;2023-01-10T03:19:19;99994.41;;;5.25;100.00
31761;BME280;18335;51.486;7.562;2023-01-10T03:21:50;99995.63;;;5.12;100.00
31761;BME280;18335;51.486;7.562;2023-01-10T03:24:23;100000.34;;;5.19;100.00
31761;BME280;18335;51.486;7.562;2023-01-10T03:26:53;99999.06;;;5.14;100.00
31761;BME280;18335;51.486;7.562;2023-01-10T03:29:28;100008.28;;;5.11;100.00
31761;BME280;18335;51.486;7.562;2023-01-10T03:31:59;100018.69;;;5.16;100.00
31761;BME280;18335;51.486;7.562;2023-01-10T03:34:30;100016.22;;;5.03;100.00
31761;BME280;18335;51.486;7.562;2023-01-10T03:37:02;100026.97;;;5.24;100.00
31761;BME280;18335;51.486;7.562;2023-01-10T03:39:35;100032.00;;;5.28;100.00
31761;BME280;18335;51.486;7.562;2023-01-10T03:42:07;100033.69;;;5.29;100.00
31761;BME280;18335;51.486;7.562;2023-01-10T03:44:40;100038.69;;;5.34;100.00
31761;BME280;18335;51.486;7.562;2023-01-10T03:47:16;100052.25;;;5.43;100.00
31761;BME280;18335;51.486;7.562;2023-01-10T03:49:48;100042.66;;;5.30;100.00
31761;BME280;18335;51.486;7.562;2023-01-10T03:52:17;100061.63;;;5.39;100.00
31761;BME280;18335;51.486;7.562;2023-01-10T03:54:45;100061.81;;;5.47;100.00
31761;BME280;18335;51.486;7.562;2023-01-10T03:57:17;100068.22;;;5.46;100.00
31761;BME280;18335;51.486;7.562;2023-01-10T03:59:45;100077.78;;;5.60;100.00
31761;BME280;18335;51.486;7.562;2023-01-10T04:02:11;100072.94;;;5.54;100.00
31761;BME280;18335;51.486;7.562;2023-01-10T04:04:38;100070.81;;;5.57;100.00
31761;BME280;18335;51.486;7.562;2023-01-10T04:07:06;100081.63;;;5.57;100.00
31761;BME280;18335;51.486;7.562;2023-01-10T04:09:33;100082.50;;;5.68;100.00
31761;BME280;18335;51.486;7.562;2023-01-10T04:12:00;100089.59;;;5.59;100.00
31761;BME280;18335;51.486;7.562;2023-01-10T04:14:27;100094.00;;;5.50;100.00
31761;BME280;18335;51.486;7.562;2023-01-10T04:16:54;100098.69;;;5.48;100.00
31761;BME280;18335;51.486;7.562;2023-01-10T04:19:21;100102.22;;;5.39;100.00
31761;BME280;18335;51.486;7.562;2023-01-10T04:21:47;100099.94;;;5.44;100.00
31761;BME280;18335;51.486;7.562;2023-01-10T04:24:15;100098.00;;;5.46;100.00
31761;BME280;18335;51.486;7.562;2023-01-10T04:26:42;100111.47;;;5.37;100.00
31761;BME280;18335;51.486;7.562;2023-01-10T04:29:09;100116.94;;;5.46;100.00
31761;BME280;18335;51.486;7.562;2023-01-10T04:31:36;100117.22;;;5.53;100.00
31761;BME280;18335;51.486;7.562;2023-01-10T04:34:04;100119.53;;;5.57;100.00
31761;BME280;18335;51.486;7.562;2023-01-10T04:36:31;100122.34;;;5.56;100.00
31761;BME280;18335;51.486;7.562;2023-01-10T04:38:58;100126.50;;;5.60;100.00
31761;BME280;18335;51.486;7.562;2023-01-10T04:41:26;100130.09;;;5.61;100.00
31761;BME280;18335;51.486;7.562;2023-01-10T04:43:52;100122.56;;;5.64;100.00
31761;BME280;18335;51.486;7.562;2023-01-10T04:46:19;100113.38;;;5.55;100.00
31761;BME280;18335;51.486;7.562;2023-01-10T04:48:46;100122.34;;;5.56;100.00
31761;BME280;18335;51.486;7.562;2023-01-10T04:51:12;100121.78;;;5.52;100.00
31761;BME280;18335;51.486;7.562;2023-01-10T04:53:40;100116.66;;;5.49;100.00
31761;BME280;18335;51.486;7.562;2023-01-10T04:56:08;100136.00;;;5.45;100.00
31761;BME280;18335;51.486;7.562;2023-01-10T04:58:37;100122.03;;;5.40;100.00
31761;BME280;18335;51.486;7.562;2023-01-10T05:01:08;100137.66;;;5.36;100.00
31761;BME280;18335;51.486;7.562;2023-01-10T05:03:35;100140.91;;;5.30;100.00
31761;BME280;18335;51.486;7.562;2023-01-10T05:06:02;100130.84;;;5.42;100.00
31761;BME280;18335;51.486;7.562;2023-01-10T05:08:29;100129.44;;;5.47;100.00
31761;BME280;18335;51.486;7.562;2023-01-10T05:10:56;100140.53;;;5.44;100.00
31761;BME280;18335;51.486;7.562;2023-01-10T05:13:23;100140.16;;;5.58;100.00
31761;BME280;18335;51.486;7.562;2023-01-10T05:15:54;100134.75;;;5.58;100.00
31761;BME280;18335;51.486;7.562;2023-01-10T05:18:22;100147.13;;;5.51;100.00
31761;BME280;18335;51.486;7.562;2023-01-10T05:20:49;100156.56;;;5.57;100.00
31761;BME280;18335;51.486;7.562;2023-01-10T05:23:16;100157.41;;;5.57;100.00
31761;BME280;18335;51.486;7.562;2023-01-10T05:25:43;100164.53;;;5.58;100.00
31761;BME280;18335;51.486;7.562;2023-01-10T05:28:09;100165.13;;;5.62;100.00
31761;BME280;18335;51.486;7.562;2023-01-10T05:30:36;100157.19;;;5.70;100.00
31761;BME280;18335;51.486;7.562;2023-01-10T05:33:04;100165.44;;;5.69;100.00
31761;BME280;18335;51.486;7.562;2023-01-10T05:35:31;100178.97;;;5.69;100.00
31761;BME280;18335;51.486;7.562;2023-01-10T05:37:58;100180.47;;;5.52;100.00
31761;BME280;18335;51.486;7.562;2023-01-10T05:40:25;100185.19;;;5.59;100.00
31761;BME280;18335;51.486;7.562;2023-01-10T05:42:51;100188.63;;;5.62;100.00
31761;BME280;18335;51.486;7.562;2023-01-10T05:45:18;100193.03;;;5.63;100.00
31761;BME280;18335;51.486;7.562;2023-01-10T05:47:45;100182.94;;;5.65;100.00
31761;BME280;18335;51.486;7.562;2023-01-10T05:50:13;100188.53;;;5.73;100.00
31761;BME280;18335;51.486;7.562;2023-01-10T05:52:39;100187.03;;;5.59;100.00
31761;BME280;18335;51.486;7.562;2023-01-10T05:55:06;100189.34;;;5.64;100.00
31761;BME280;18335;51.486;7.562;2023-01-10T05:57:33;100196.44;;;5.55;100.00
31761;BME280;18335;51.486;7.562;2023-01-10T06:00:00;100201.09;;;5.43;100.00
31761;BME280;18335;51.486;7.562;2023-01-10T06:02:37;100198.66;;;5.50;100.00
31761;BME280;18335;51.486;7.562;2023-01-10T06:05:04;100210.94;;;5.54;100.00
31761;BME280;18335;51.486;7.562;2023-01-10T06:07:32;100206.41;;;5.54;100.00
31761;BME280;18335;51.486;7.562;2023-01-10T06:09:59;100212.09;;;5.51;100.00
31761;BME280;18335;51.486;7.562;2023-01-10T06:12:26;100219.22;;;5.52;100.00
31761;BME280;18335;51.486;7.562;2023-01-10T06:14:53;100230.03;;;5.52;100.00
31761;BME280;18335;51.486;7.562;2023-01-10T06:17:20;100227.78;;;5.57;100.00
31761;BME280;18335;51.486;7.562;2023-01-10T06:19:47;100216.38;;;5.54;100.00
31761;BME280;18335;51.486;7.562;2023-01-10T06:22:13;100225.25;;;5.66;100.00
31761;BME280;18335;51.486;7.562;2023-01-10T06:24:41;100237.22;;;5.63;100.00
31761;BME280;18335;51.486;7.562;2023-01-10T06:27:08;100238.00;;;5.54;100.00
31761;BME280;18335;51.486;7.562;2023-01-10T06:29:35;100234.78;;;5.60;100.00
31761;BME280;18335;51.486;7.562;2023-01-10T06:32:01;100229.75;;;5.55;100.00
31761;BME280;18335;51.486;7.562;2023-01-10T06:34:28;100229.19;;;5.52;100.00
31761;BME280;18335;51.486;7.562;2023-01-10T06:36:55;100233.28;;;5.46;100.00
31761;BME280;18335;51.486;7.562;2023-01-10T06:39:22;100252.59;;;5.42;100.00
31761;BME280;18335;51.486;7.562;2023-01-10T06:41:51;100264.75;;;5.47;100.00
31761;BME280;18335;51.486;7.562;2023-01-10T06:44:17;100281.13;;;5.46;100.00
31761;BME280;18335;51.486;7.562;2023-01-10T06:46:44;100280.72;;;5.50;100.00
31761;BME280;18335;51.486;7.562;2023-01-10T06:49:11;100297.81;;;5.51;100.00
31761;BME280;18335;51.486;7.562;2023-01-10T06:51:37;100298.69;;;5.51;100.00
31761;BME280;18335;51.486;7.562;2023-01-10T06:54:05;100297.22;;;5.68;100.00
31761;BME280;18335;51.486;7.562;2023-01-10T06:56:32;100295.38;;;5.69;100.00
31761;BME280;18335;51.486;7.562;2023-01-10T06:59:00;100292.56;;;5.80;100.00
31761;BME280;18335;51.486;7.562;2023-01-10T07:01:26;100295.69;;;5.75;100.00
31761;BME280;18335;51.486;7.562;2023-01-10T07:03:53;100291.75;;;5.79;100.00
31761;BME280;18335;51.486;7.562;2023-01-10T07:06:20;100304.94;;;5.73;100.00
31761;BME280;18335;51.486;7.562;2023-01-10T07:08:46;100314.19;;;5.70;100.00
31761;BME280;18335;51.486;7.562;2023-01-10T07:11:14;100323.69;;;5.65;100.00
31761;BME280;18335;51.486;7.562;2023-01-10T07:13:41;100311.94;;;5.75;100.00
31761;BME280;18335;51.486;7.562;2023-01-10T07:16:12;100329.91;;;5.76;100.00
31761;BME280;18335;51.486;7.562;2023-01-10T07:18:40;100321.84;;;5.65;100.00
31761;BME280;18335;51.486;7.562;2023-01-10T07:21:08;100331.00;;;5.74;100.00
31761;BME280;18335;51.486;7.562;2023-01-10T07:23:35;100328.44;;;5.72;100.00
31761;BME280;18335;51.486;7.562;2023-01-10T07:26:05;100320.66;;;5.79;100.00
31761;BME280;18335;51.486;7.562;2023-01-10T07:28:32;100330.19;;;5.73;100.00
31761;BME280;18335;51.486;7.562;2023-01-10T07:31:00;100328.44;;;5.72;100.00
31761;BME280;18335;51.486;7.562;2023-01-10T07:33:29;100339.00;;;5.75;100.00
31761;BME280;18335;51.486;7.562;2023-01-10T07:35:56;100333.00;;;5.72;100.00
31761;BME280;18335;51.486;7.562;2023-01-10T07:38:23;100341.13;;;5.72;100.00
31761;BME280;18335;51.486;7.562;2023-01-10T07:40:49;100340.13;;;5.73;100.00
31761;BME280;18335;51.486;7.562;2023-01-10T07:43:16;100350.44;;;5.79;100.00
31761;BME280;18335;51.486;7.562;2023-01-10T07:45:43;100347.84;;;5.77;100.00
31761;BME280;18335;51.486;7.562;2023-01-10T07:48:09;100351.16;;;5.81;100.00
31761;BME280;18335;51.486;7.562;2023-01-10T07:50:38;100355.38;;;5.74;100.00
31761;BME280;18335;51.486;7.562;2023-01-10T07:53:05;100356.13;;;5.76;100.00
31761;BME280;18335;51.486;7.562;2023-01-10T07:55:33;100360.22;;;5.70;100.00
31761;BME280;18335;51.486;7.562;2023-01-10T07:58:01;100370.81;;;5.83;100.00
31761;BME280;18335;51.486;7.562;2023-01-10T08:00:28;100368.38;;;5.80;100.00
31761;BME280;18335;51.486;7.562;2023-01-10T08:02:54;100365.94;;;5.88;100.00
31761;BME280;18335;51.486;7.562;2023-01-10T08:05:22;100364.69;;;5.81;100.00
31761;BME280;18335;51.486;7.562;2023-01-10T08:07:50;100370.00;;;5.82;100.00
31761;BME280;18335;51.486;7.562;2023-01-10T08:10:17;100374.66;;;5.80;100.00
31761;BME280;18335;51.486;7.562;2023-01-10T08:12:44;100382.19;;;5.77;100.00
31761;BME280;18335;51.486;7.562;2023-01-10T08:15:12;100386.34;;;5.81;100.00
31761;BME280;18335;51.486;7.562;2023-01-10T08:17:39;100387.81;;;5.85;100.00
31761;BME280;18335;51.486;7.562;2023-01-10T08:20:07;100395.81;;;5.86;100.00
31761;BME280;18335;51.486;7.562;2023-01-10T08:22:34;100409.97;;;5.90;100.00
31761;BME280;18335;51.486;7.562;2023-01-10T08:25:02;100397.78;;;5.84;100.00
31761;BME280;18335;51.486;7.562;2023-01-10T08:27:29;100394.44;;;5.92;100.00
31761;BME280;18335;51.486;7.562;2023-01-10T08:29:56;100391.72;;;5.92;100.00
31761;BME280;18335;51.486;7.562;2023-01-10T08:32:22;100396.44;;;5.90;100.00
31761;BME280;18335;51.486;7.562;2023-01-10T08:34:49;100396.88;;;5.95;100.00
31761;BME280;18335;51.486;7.562;2023-01-10T08:37:16;100402.78;;;6.00;100.00
31761;BME280;18335;51.486;7.562;2023-01-10T08:39:42;100401.50;;;6.04;100.00
31761;BME280;18335;51.486;7.562;2023-01-10T08:42:10;100399.81;;;6.03;100.00
31761;BME280;18335;51.486;7.562;2023-01-10T08:44:37;100399.28;;;6.09;100.00
31761;BME280;18335;51.486;7.562;2023-01-10T08:47:04;100405.25;;;6.12;100.00
31761;BME280;18335;51.486;7.562;2023-01-10T08:49:30;100408.91;;;6.02;100.00
31761;BME280;18335;51.486;7.562;2023-01-10T08:51:57;100399.47;;;6.17;100.00
31761;BME280;18335;51.486;7.562;2023-01-10T08:54:24;100411.69;;;6.11;100.00
31761;BME280;18335;51.486;7.562;2023-01-10T08:56:51;100412.22;;;6.05;100.00
31761;BME280;18335;51.486;7.562;2023-01-10T08:59:19;100412.06;;;6.07;100.00
31761;BME280;18335;51.486;7.562;2023-01-10T09:01:45;100419.22;;;6.08;100.00
31761;BME280;18335;51.486;7.562;2023-01-10T09:04:12;100419.03;;;6.00;100.00
31761;BME280;18335;51.486;7.562;2023-01-10T09:06:39;100419.28;;;5.97;100.00
31761;BME280;18335;51.486;7.562;2023-01-10T09:09:05;100423.38;;;6.12;100.00
31761;BME280;18335;51.486;7.562;2023-01-10T09:11:32;100424.38;;;6.11;100.00
31761;BME280;18335;51.486;7.562;2023-01-10T09:13:59;100430.13;;;5.97;100.00
31761;BME280;18335;51.486;7.562;2023-01-10T09:16:27;100420.94;;;6.09;100.00
31761;BME280;18335;51.486;7.562;2023-01-10T09:18:54;100433.13;;;6.03;100.00
31761;BME280;18335;51.486;7.562;2023-01-10T09:21:21;100428.06;;;6.10;100.00
31761;BME280;18335;51.486;7.562;2023-01-10T09:23:47;100429.97;;;6.19;100.00
31761;BME280;18335;51.486;7.562;2023-01-10T09:26:14;100430.75;;;6.10;100.00
31761;BME280;18335;51.486;7.562;2023-01-10T09:28:41;100432.94;;;6.16;100.00
31761;BME280;18335;51.486;7.562;2023-01-10T09:31:07;100430.75;;;6.10;100.00
31761;BME280;18335;51.486;7.562;2023-01-10T09:33:37;100441.06;;;6.16;100.00
31761;BME280;18335;51.486;7.562;2023-01-10T09:36:06;100431.81;;;6.19;100.00
31761;BME280;18335;51.486;7.562;2023-01-10T09:38:33;100440.53;;;6.22;100.00
31761;BME280;18335;51.486;7.562;2023-01-10T09:41:27;100442.28;;;6.23;100.00
31761;BME280;18335;51.486;7.562;2023-01-10T09:44:00;100452.66;;;6.18;100.00
31761;BME280;18335;51.486;7.562;2023-01-10T09:46:38;100443.94;;;6.15;100.00
31761;BME280;18335;51.486;7.562;2023-01-10T09:49:15;100447.97;;;6.20;100.00
31761;BME280;18335;51.486;7.562;2023-01-10T09:51:47;100450.22;;;6.15;100.00
31761;BME280;18335;51.486;7.562;2023-01-10T09:54:17;100461.31;;;6.12;100.00
31761;BME280;18335;51.486;7.562;2023-01-10T09:56:46;100452.59;;;6.29;100.00
31761;BME280;18335;51.486;7.562;2023-01-10T09:59:15;100459.84;;;6.29;100.00
31761;BME280;18335;51.486;7.562;2023-01-10T10:01:44;100460.25;;;6.24;100.00
31761;BME280;18335;51.486;7.562;2023-01-10T10:04:21;100455.66;;;6.25;100.00
31761;BME280;18335;51.486;7.562;2023-01-10T10:06:49;100461.16;;;6.34;100.00
31761;BME280;18335;51.486;7.562;2023-01-10T10:09:21;100459.16;;;6.36;100.00
31761;BME280;18335;51.486;7.562;2023-01-10T10:11:58;100467.72;;;6.32;100.00
31761;BME280;18335;51.486;7.562;2023-01-10T10:14:40;100459.69;;;6.30;100.00
31761;BME280;18335;51.486;7.562;2023-01-10T10:17:19;100475.63;;;6.44;100.00
31761;BME280;18335;51.486;7.562;2023-01-10T10:20:01;100468.94;;;6.48;100.00
31761;BME280;18335;51.486;7.562;2023-01-10T10:22:37;100462.19;;;6.43;100.00
31761;BME280;18335;51.486;7.562;2023-01-10T10:25:17;100461.28;;;6.53;100.00
31761;BME280;18335;51.486;7.562;2023-01-10T10:28:00;100453.06;;;6.64;100.00
31761;BME280;18335;51.486;7.562;2023-01-10T10:30:43;100453.31;;;6.61;100.00
31761;BME280;18335;51.486;7.562;2023-01-10T10:33:32;100439.91;;;6.60;100.00
31761;BME280;18335;51.486;7.562;2023-01-10T10:36:10;100448.00;;;6.50;100.00
31761;BME280;18335;51.486;7.562;2023-01-10T10:38:43;100434.16;;;6.53;100.00
31761;BME280;18335;51.486;7.562;2023-01-10T10:41:15;100431.72;;;6.50;100.00
31761;BME280;18335;51.486;7.562;2023-01-10T10:43:45;100425.88;;;6.55;100.00
31761;BME280;18335;51.486;7.562;2023-01-10T10:46:15;100430.44;;;6.54;100.00
31761;BME280;18335;51.486;7.562;2023-01-10T10:48:47;100435.16;;;6.52;100.00
31761;BME280;18335;51.486;7.562;2023-01-10T10:51:23;100434.16;;;6.53;100.00
31761;BME280;18335;51.486;7.562;2023-01-10T10:53:53;100444.28;;;6.51;100.00
31761;BME280;18335;51.486;7.562;2023-01-10T10:56:22;100427.34;;;6.59;100.00
31761;BME280;18335;51.486;7.562;2023-01-10T10:58:54;100424.09;;;6.65;100.00
31761;BME280;18335;51.486;7.562;2023-01-10T11:01:22;100412.59;;;6.82;100.00
31761;BME280;18335;51.486;7.562;2023-01-10T11:03:51;100413.72;;;6.80;100.00
31761;BME280;18335;51.486;7.562;2023-01-10T11:06:23;100411.06;;;6.89;100.00
31761;BME280;18335;51.486;7.562;2023-01-10T11:08:53;100407.91;;;6.94;100.00
31761;BME280;18335;51.486;7.562;2023-01-10T11:11:23;100418.91;;;6.92;100.00
31761;BME280;18335;51.486;7.562;2023-01-10T11:13:53;100409.22;;;6.90;100.00
31761;BME280;18335;51.486;7.562;2023-01-10T11:16:39;100414.91;;;6.87;100.00
31761;BME280;18335;51.486;7.562;2023-01-10T11:19:15;100410.31;;;6.87;100.00
31761;BME280;18335;51.486;7.562;2023-01-10T11:21:48;100411.41;;;6.75;100.00
31761;BME280;18335;51.486;7.562;2023-01-10T11:24:28;100410.59;;;6.75;100.00
31761;BME280;18335;51.486;7.562;2023-01-10T11:26:57;100391.75;;;6.83;100.00
31761;BME280;18335;51.486;7.562;2023-01-10T11:29:26;100401.44;;;6.76;100.00
31761;BME280;18335;51.486;7.562;2023-01-10T11:31:55;100396.47;;;6.81;100.00
31761;BME280;18335;51.486;7.562;2023-01-10T11:34:24;100398.34;;;6.90;100.00
31761;BME280;18335;51.486;7.562;2023-01-10T11:36:55;100394.94;;;6.97;100.00
31761;BME280;18335;51.486;7.562;2023-01-10T11:39:23;100397.22;;;7.02;100.00
31761;BME280;18335;51.486;7.562;2023-01-10T11:41:50;100381.06;;;6.91;100.00
31761;BME280;18335;51.486;7.562;2023-01-10T11:44:22;100393.78;;;7.00;100.00
31761;BME280;18335;51.486;7.562;2023-01-10T11:46:53;100402.94;;;6.99;100.00
31761;BME280;18335;51.486;7.562;2023-01-10T11:49:28;100380.94;;;7.02;100.00
31761;BME280;18335;51.486;7.562;2023-01-10T11:52:02;100387.81;;;7.06;100.00
31761;BME280;18335;51.486;7.562;2023-01-10T11:54:30;100378.81;;;7.05;100.00
31761;BME280;18335;51.486;7.562;2023-01-10T11:57:00;100383.56;;;7.13;100.00
31761;BME280;18335;51.486;7.562;2023-01-10T11:59:28;100384.41;;;7.13;100.00
31761;BME280;18335;51.486;7.562;2023-01-10T12:01:58;100374.59;;;7.32;100.00
31761;BME280;18335;51.486;7.562;2023-01-10T12:04:28;100375.00;;;7.27;100.00
31761;BME280;18335;51.486;7.562;2023-01-10T12:07:00;100368.00;;;7.24;100.00
31761;BME280;18335;51.486;7.562;2023-01-10T12:09:33;100369.84;;;7.24;100.00
31761;BME280;18335;51.486;7.562;2023-01-10T12:12:02;100367.56;;;7.19;100.00
31761;BME280;18335;51.486;7.562;2023-01-10T12:14:29;100362.41;;;7.07;100.00
31761;BME280;18335;51.486;7.562;2023-01-10T12:17:00;100365.88;;;7.28;100.00
31761;BME280;18335;51.486;7.562;2023-01-10T12:19:28;100363.84;;;7.30;100.00
31761;BME280;18335;51.486;7.562;2023-01-10T12:21:58;100369.28;;;7.30;100.00
31761;BME280;18335;51.486;7.562;2023-01-10T12:24:31;100365.28;;;7.24;100.00
31761;BME280;18335;51.486;7.562;2023-01-10T12:27:00;100363.84;;;7.30;100.00
31761;BME280;18335;51.486;7.562;2023-01-10T12:29:32;100371.28;;;7.28;100.00
31761;BME280;18335;51.486;7.562;2023-01-10T12:32:02;100362.28;;;7.28;100.00
31761;BME280;18335;51.486;7.562;2023-01-10T12:34:38;100362.28;;;7.47;100.00
31761;BME280;18335;51.486;7.562;2023-01-10T12:37:08;100361.28;;;7.48;100.00
31761;BME280;18335;51.486;7.562;2023-01-10T12:39:43;100363.59;;;7.52;100.00
31761;BME280;18335;51.486;7.562;2023-01-10T12:42:18;100362.72;;;7.42;100.00
31761;BME280;18335;51.486;7.562;2023-01-10T12:45:11;100361.84;;;7.42;100.00
31761;BME280;18335;51.486;7.562;2023-01-10T12:47:51;100364.16;;;7.46;100.00
31761;BME280;18335;51.486;7.562;2023-01-10T12:50:22;100364.72;;;7.40;100.00
31761;BME280;18335;51.486;7.562;2023-01-10T12:52:58;100350.72;;;7.54;100.00
31761;BME280;18335;51.486;7.562;2023-01-10T12:55:31;100351.88;;;7.42;100.00
31761;BME280;18335;51.486;7.562;2023-01-10T12:58:01;100346.56;;;7.50;100.00
31761;BME280;18335;51.486;7.562;2023-01-10T13:00:32;100352.28;;;7.47;100.00
31761;BME280;18335;51.486;7.562;2023-01-10T13:03:03;100336.00;;;7.57;100.00
31761;BME280;18335;51.486;7.562;2023-01-10T13:05:32;100338.59;;;7.58;100.00
31761;BME280;18335;51.486;7.562;2023-01-10T13:08:02;100334.28;;;7.56;100.00
31761;BME280;18335;51.486;7.562;2023-01-10T13:10:40;100329.00;;;7.54;100.00